Washington, District of Columbia
Traffic Map
Current Weather Conditions
Washington, District of Columbia
Broken Clouds
Broken Clouds
79°
Feels Like: 82°
Wind Chill: 79° Ceiling: 25000
Heat Index: 82° Visibility: 10mi
Dew Point: 69° Wind: 6mph
Humidity: 72% Direction: 350° (N)
Pressure: 29.91in Gusts: 0mph
Raw Report DataKDCA 040552Z 35005KT 10SM BKN250 26/21 A2991 RMK AO2 SLP126 T02610206 10278 20256 50002
Traffic Incident Summary
Active as of:
Severity:
Category:
InformationThere was an issue retrieving the traffic information for this location. Please try a different location or try again shortly.
Advertisements
Track Severe Weather on mobile